sensor_id;sensor_type;location;lat;lon;timestamp;P1;durP1;ratioP1;P2;durP2;ratioP2
76094;SDS011;64821;13.710;100.604;2023-04-06T00:00:39;27.02;;;21.70;;
76094;SDS011;64821;13.710;100.604;2023-04-06T00:01:43;31.55;;;21.73;;
76094;SDS011;64821;13.710;100.604;2023-04-06T00:02:47;28.00;;;22.23;;
76094;SDS011;64821;13.710;100.604;2023-04-06T00:03:53;30.07;;;23.07;;
76094;SDS011;64821;13.710;100.604;2023-04-06T00:04:57;29.17;;;21.75;;
76094;SDS011;64821;13.710;100.604;2023-04-06T00:06:00;29.40;;;23.42;;
76094;SDS011;64821;13.710;100.604;2023-04-06T00:07:04;29.23;;;22.63;;
76094;SDS011;64821;13.710;100.604;2023-04-06T00:08:08;29.55;;;22.23;;
76094;SDS011;64821;13.710;100.604;2023-04-06T00:09:12;30.00;;;23.93;;
76094;SDS011;64821;13.710;100.604;2023-04-06T00:10:15;30.60;;;23.15;;
76094;SDS011;64821;13.710;100.604;2023-04-06T00:11:19;31.98;;;23.20;;
76094;SDS011;64821;13.710;100.604;2023-04-06T00:12:23;30.42;;;23.70;;
76094;SDS011;64821;13.710;100.604;2023-04-06T00:13:27;30.52;;;23.15;;
76094;SDS011;64821;13.710;100.604;2023-04-06T00:14:31;30.90;;;22.70;;
76094;SDS011;64821;13.710;100.604;2023-04-06T00:15:34;31.70;;;24.20;;
76094;SDS011;64821;13.710;100.604;2023-04-06T00:16:38;31.65;;;22.58;;
76094;SDS011;64821;13.710;100.604;2023-04-06T00:17:42;26.23;;;21.05;;
76094;SDS011;64821;13.710;100.604;2023-04-06T00:18:46;32.33;;;23.42;;
76094;SDS011;64821;13.710;100.604;2023-04-06T00:19:51;30.47;;;23.30;;
76094;SDS011;64821;13.710;100.604;2023-04-06T00:20:55;27.63;;;21.20;;
76094;SDS011;64821;13.710;100.604;2023-04-06T00:21:59;31.02;;;23.20;;
76094;SDS011;64821;13.710;100.604;2023-04-06T00:23:02;30.45;;;22.13;;
76094;SDS011;64821;13.710;100.604;2023-04-06T00:24:06;28.42;;;22.42;;
76094;SDS011;64821;13.710;100.604;2023-04-06T00:25:10;30.73;;;24.27;;
76094;SDS011;64821;13.710;100.604;2023-04-06T00:26:14;29.98;;;23.33;;
76094;SDS011;64821;13.710;100.604;2023-04-06T00:27:17;28.92;;;23.08;;
76094;SDS011;64821;13.710;100.604;2023-04-06T00:28:21;28.05;;;22.00;;
76094;SDS011;64821;13.710;100.604;2023-04-06T00:29:25;28.63;;;21.50;;
76094;SDS011;64821;13.710;100.604;2023-04-06T00:30:29;32.90;;;23.50;;
76094;SDS011;64821;13.710;100.604;2023-04-06T00:31:33;30.02;;;22.77;;
76094;SDS011;64821;13.710;100.604;2023-04-06T00:32:37;26.65;;;19.92;;
76094;SDS011;64821;13.710;100.604;2023-04-06T00:33:41;31.50;;;23.05;;
76094;SDS011;64821;13.710;100.604;2023-04-06T00:34:45;29.83;;;22.38;;
76094;SDS011;64821;13.710;100.604;2023-04-06T00:35:50;33.13;;;22.57;;
76094;SDS011;64821;13.710;100.604;2023-04-06T00:36:54;28.88;;;22.15;;
76094;SDS011;64821;13.710;100.604;2023-04-06T00:37:58;27.63;;;21.73;;
76094;SDS011;64821;13.710;100.604;2023-04-06T00:39:02;34.85;;;27.05;;
76094;SDS011;64821;13.710;100.604;2023-04-06T00:40:06;32.95;;;25.73;;
76094;SDS011;64821;13.710;100.604;2023-04-06T00:41:11;34.23;;;26.33;;
76094;SDS011;64821;13.710;100.604;2023-04-06T00:42:15;31.88;;;26.27;;
76094;SDS011;64821;13.710;100.604;2023-04-06T00:43:19;35.13;;;26.33;;
76094;SDS011;64821;13.710;100.604;2023-04-06T00:44:23;32.55;;;26.55;;
76094;SDS011;64821;13.710;100.604;2023-04-06T00:45:27;34.47;;;26.13;;
76094;SDS011;64821;13.710;100.604;2023-04-06T00:46:31;33.53;;;26.17;;
76094;SDS011;64821;13.710;100.604;2023-04-06T00:47:35;31.35;;;26.55;;
76094;SDS011;64821;13.710;100.604;2023-04-06T00:48:39;29.90;;;24.25;;
76094;SDS011;64821;13.710;100.604;2023-04-06T00:49:43;32.25;;;25.77;;
76094;SDS011;64821;13.710;100.604;2023-04-06T00:50:47;33.28;;;26.52;;
76094;SDS011;64821;13.710;100.604;2023-04-06T00:51:52;37.30;;;29.03;;
76094;SDS011;64821;13.710;100.604;2023-04-06T00:52:56;33.10;;;28.00;;
76094;SDS011;64821;13.710;100.604;2023-04-06T00:54:00;35.88;;;28.58;;
76094;SDS011;64821;13.710;100.604;2023-04-06T00:55:05;35.58;;;30.10;;
76094;SDS011;64821;13.710;100.604;2023-04-06T00:56:09;37.65;;;32.47;;
76094;SDS011;64821;13.710;100.604;2023-04-06T00:57:13;35.50;;;30.20;;
76094;SDS011;64821;13.710;100.604;2023-04-06T00:58:25;33.85;;;28.67;;
76094;SDS011;64821;13.710;100.604;2023-04-06T00:59:38;37.90;;;30.65;;
76094;SDS011;64821;13.710;100.604;2023-04-06T01:00:58;36.92;;;29.38;;
76094;SDS011;64821;13.710;100.604;2023-04-06T01:02:02;36.33;;;30.92;;
76094;SDS011;64821;13.710;100.604;2023-04-06T01:03:06;37.77;;;30.07;;
76094;SDS011;64821;13.710;100.604;2023-04-06T01:04:11;36.47;;;29.52;;
76094;SDS011;64821;13.710;100.604;2023-04-06T01:05:15;39.63;;;30.65;;
76094;SDS011;64821;13.710;100.604;2023-04-06T01:06:18;37.90;;;29.38;;
76094;SDS011;64821;13.710;100.604;2023-04-06T01:07:24;36.55;;;29.80;;
76094;SDS011;64821;13.710;100.604;2023-04-06T01:08:28;36.63;;;29.83;;
76094;SDS011;64821;13.710;100.604;2023-04-06T01:09:32;37.10;;;30.00;;
76094;SDS011;64821;13.710;100.604;2023-04-06T01:10:35;35.55;;;29.40;;
76094;SDS011;64821;13.710;100.604;2023-04-06T01:11:39;33.55;;;28.27;;
76094;SDS011;64821;13.710;100.604;2023-04-06T01:12:43;35.25;;;29.75;;
76094;SDS011;64821;13.710;100.604;2023-04-06T01:13:47;36.50;;;28.47;;
76094;SDS011;64821;13.710;100.604;2023-04-06T01:14:51;36.00;;;31.30;;
76094;SDS011;64821;13.710;100.604;2023-04-06T01:15:55;35.22;;;27.70;;
76094;SDS011;64821;13.710;100.604;2023-04-06T01:16:59;36.10;;;30.80;;
76094;SDS011;64821;13.710;100.604;2023-04-06T01:18:03;38.50;;;31.25;;
76094;SDS011;64821;13.710;100.604;2023-04-06T01:19:07;36.63;;;29.17;;
76094;SDS011;64821;13.710;100.604;2023-04-06T01:20:11;38.53;;;30.20;;
76094;SDS011;64821;13.710;100.604;2023-04-06T01:21:15;38.15;;;30.90;;
76094;SDS011;64821;13.710;100.604;2023-04-06T01:22:21;34.10;;;29.25;;
76094;SDS011;64821;13.710;100.604;2023-04-06T01:23:26;35.22;;;29.33;;
76094;SDS011;64821;13.710;100.604;2023-04-06T01:24:30;34.20;;;25.93;;
76094;SDS011;64821;13.710;100.604;2023-04-06T01:25:34;34.53;;;28.90;;
76094;SDS011;64821;13.710;100.604;2023-04-06T01:26:38;35.20;;;28.52;;
76094;SDS011;64821;13.710;100.604;2023-04-06T01:27:43;34.20;;;29.60;;
76094;SDS011;64821;13.710;100.604;2023-04-06T01:28:47;33.90;;;28.80;;
76094;SDS011;64821;13.710;100.604;2023-04-06T01:29:50;33.17;;;29.17;;
76094;SDS011;64821;13.710;100.604;2023-04-06T01:30:54;39.35;;;30.67;;
76094;SDS011;64821;13.710;100.604;2023-04-06T01:31:58;37.30;;;29.35;;
76094;SDS011;64821;13.710;100.604;2023-04-06T01:33:02;36.55;;;30.20;;
76094;SDS011;64821;13.710;100.604;2023-04-06T01:34:06;35.25;;;29.02;;
76094;SDS011;64821;13.710;100.604;2023-04-06T01:35:10;36.07;;;29.53;;
76094;SDS011;64821;13.710;100.604;2023-04-06T01:36:14;33.38;;;28.77;;
76094;SDS011;64821;13.710;100.604;2023-04-06T01:37:22;34.50;;;27.63;;
76094;SDS011;64821;13.710;100.604;2023-04-06T01:38:26;33.92;;;29.30;;
76094;SDS011;64821;13.710;100.604;2023-04-06T01:39:30;37.28;;;29.40;;
76094;SDS011;64821;13.710;100.604;2023-04-06T01:40:34;32.23;;;27.77;;
76094;SDS011;64821;13.710;100.604;2023-04-06T01:41:37;37.53;;;28.15;;
76094;SDS011;64821;13.710;100.604;2023-04-06T01:42:41;30.63;;;27.17;;
76094;SDS011;64821;13.710;100.604;2023-04-06T01:43:46;38.80;;;31.88;;
76094;SDS011;64821;13.710;100.604;2023-04-06T01:44:51;35.78;;;28.45;;
76094;SDS011;64821;13.710;100.604;2023-04-06T01:45:55;34.37;;;26.20;;
76094;SDS011;64821;13.710;100.604;2023-04-06T01:46:59;33.58;;;27.10;;
76094;SDS011;64821;13.710;100.604;2023-04-06T01:48:03;33.95;;;26.65;;
76094;SDS011;64821;13.710;100.604;2023-04-06T01:49:07;33.67;;;27.58;;
76094;SDS011;64821;13.710;100.604;2023-04-06T01:50:11;34.03;;;27.77;;
76094;SDS011;64821;13.710;100.604;2023-04-06T01:51:15;33.20;;;27.40;;
76094;SDS011;64821;13.710;100.604;2023-04-06T01:52:18;32.00;;;26.20;;
76094;SDS011;64821;13.710;100.604;2023-04-06T01:53:24;31.83;;;26.58;;
76094;SDS011;64821;13.710;100.604;2023-04-06T01:54:28;34.20;;;27.30;;
76094;SDS011;64821;13.710;100.604;2023-04-06T01:55:31;32.30;;;27.25;;
76094;SDS011;64821;13.710;100.604;2023-04-06T01:56:35;36.03;;;29.03;;
76094;SDS011;64821;13.710;100.604;2023-04-06T01:57:39;34.00;;;27.90;;
76094;SDS011;64821;13.710;100.604;2023-04-06T01:58:43;34.78;;;29.05;;
76094;SDS011;64821;13.710;100.604;2023-04-06T01:59:47;31.58;;;26.83;;
76094;SDS011;64821;13.710;100.604;2023-04-06T02:00:51;35.60;;;30.10;;
76094;SDS011;64821;13.710;100.604;2023-04-06T02:01:54;34.93;;;28.10;;
76094;SDS011;64821;13.710;100.604;2023-04-06T02:02:58;36.35;;;25.98;;
76094;SDS011;64821;13.710;100.604;2023-04-06T02:04:02;35.45;;;25.63;;
76094;SDS011;64821;13.710;100.604;2023-04-06T02:05:06;31.52;;;26.20;;
76094;SDS011;64821;13.710;100.604;2023-04-06T02:06:10;33.35;;;27.48;;
76094;SDS011;64821;13.710;100.604;2023-04-06T02:07:14;33.03;;;26.17;;
76094;SDS011;64821;13.710;100.604;2023-04-06T02:08:18;32.42;;;26.70;;
76094;SDS011;64821;13.710;100.604;2023-04-06T02:09:23;30.77;;;25.83;;
76094;SDS011;64821;13.710;100.604;2023-04-06T02:10:27;31.42;;;25.77;;
76094;SDS011;64821;13.710;100.604;2023-04-06T02:11:31;38.25;;;28.52;;
76094;SDS011;64821;13.710;100.604;2023-04-06T02:12:34;35.70;;;29.07;;
76094;SDS011;64821;13.710;100.604;2023-04-06T02:13:38;38.17;;;27.88;;
76094;SDS011;64821;13.710;100.604;2023-04-06T02:14:42;36.00;;;27.00;;
76094;SDS011;64821;13.710;100.604;2023-04-06T02:15:46;32.67;;;26.08;;
76094;SDS011;64821;13.710;100.604;2023-04-06T02:16:50;35.00;;;27.45;;
76094;SDS011;64821;13.710;100.604;2023-04-06T02:17:54;31.43;;;26.43;;
76094;SDS011;64821;13.710;100.604;2023-04-06T02:18:57;31.88;;;25.17;;
76094;SDS011;64821;13.710;100.604;2023-04-06T02:20:01;32.40;;;27.00;;
76094;SDS011;64821;13.710;100.604;2023-04-06T02:21:05;32.30;;;26.23;;
76094;SDS011;64821;13.710;100.604;2023-04-06T02:22:09;35.45;;;28.15;;
76094;SDS011;64821;13.710;100.604;2023-04-06T02:23:13;31.93;;;27.67;;
76094;SDS011;64821;13.710;100.604;2023-04-06T02:24:16;32.67;;;27.92;;
76094;SDS011;64821;13.710;100.604;2023-04-06T02:25:22;33.85;;;27.58;;
76094;SDS011;64821;13.710;100.604;2023-04-06T02:26:25;31.77;;;25.80;;
76094;SDS011;64821;13.710;100.604;2023-04-06T02:27:29;33.95;;;28.67;;
76094;SDS011;64821;13.710;100.604;2023-04-06T02:28:33;34.07;;;28.47;;
76094;SDS011;64821;13.710;100.604;2023-04-06T02:29:37;34.03;;;28.67;;
76094;SDS011;64821;13.710;100.604;2023-04-06T02:30:41;35.38;;;27.98;;
76094;SDS011;64821;13.710;100.604;2023-04-06T02:31:44;33.40;;;28.88;;
76094;SDS011;64821;13.710;100.604;2023-04-06T02:32:48;33.85;;;29.75;;
76094;SDS011;64821;13.710;100.604;2023-04-06T02:33:52;36.23;;;29.37;;
76094;SDS011;64821;13.710;100.604;2023-04-06T02:34:56;34.60;;;30.00;;
76094;SDS011;64821;13.710;100.604;2023-04-06T02:36:00;32.80;;;27.42;;
76094;SDS011;64821;13.710;100.604;2023-04-06T02:37:04;34.17;;;29.67;;
76094;SDS011;64821;13.710;100.604;2023-04-06T02:38:07;36.35;;;29.30;;
76094;SDS011;64821;13.710;100.604;2023-04-06T02:39:11;33.57;;;28.70;;
76094;SDS011;64821;13.710;100.604;2023-04-06T02:40:18;37.75;;;30.63;;
76094;SDS011;64821;13.710;100.604;2023-04-06T02:41:24;37.13;;;31.50;;
76094;SDS011;64821;13.710;100.604;2023-04-06T02:42:27;33.78;;;29.05;;
76094;SDS011;64821;13.710;100.604;2023-04-06T02:43:32;30.48;;;25.77;;
76094;SDS011;64821;13.710;100.604;2023-04-06T02:44:36;34.10;;;28.63;;
76094;SDS011;64821;13.710;100.604;2023-04-06T02:45:39;34.47;;;29.92;;
76094;SDS011;64821;13.710;100.604;2023-04-06T02:46:43;34.20;;;27.90;;
76094;SDS011;64821;13.710;100.604;2023-04-06T02:47:47;36.03;;;30.10;;
76094;SDS011;64821;13.710;100.604;2023-04-06T02:48:51;33.95;;;28.27;;
76094;SDS011;64821;13.710;100.604;2023-04-06T02:49:55;31.57;;;28.10;;
76094;SDS011;64821;13.710;100.604;2023-04-06T02:50:59;35.22;;;28.35;;
76094;SDS011;64821;13.710;100.604;2023-04-06T02:52:03;35.80;;;30.77;;
76094;SDS011;64821;13.710;100.604;2023-04-06T02:53:10;35.83;;;29.73;;
76094;SDS011;64821;13.710;100.604;2023-04-06T02:54:16;37.10;;;28.58;;
76094;SDS011;64821;13.710;100.604;2023-04-06T02:55:20;34.80;;;28.23;;
76094;SDS011;64821;13.710;100.604;2023-04-06T02:56:25;36.30;;;28.50;;
76094;SDS011;64821;13.710;100.604;2023-04-06T02:57:29;31.90;;;26.73;;
76094;SDS011;64821;13.710;100.604;2023-04-06T02:58:33;37.65;;;29.92;;
76094;SDS011;64821;13.710;100.604;2023-04-06T02:59:38;36.08;;;29.70;;
76094;SDS011;64821;13.710;100.604;2023-04-06T03:00:42;34.60;;;29.30;;
76094;SDS011;64821;13.710;100.604;2023-04-06T03:01:46;38.30;;;30.33;;
76094;SDS011;64821;13.710;100.604;2023-04-06T03:02:50;34.00;;;29.27;;
76094;SDS011;64821;13.710;100.604;2023-04-06T03:03:54;36.08;;;30.73;;
76094;SDS011;64821;13.710;100.604;2023-04-06T03:04:58;35.58;;;30.83;;
76094;SDS011;64821;13.710;100.604;2023-04-06T03:06:02;34.77;;;30.83;;
76094;SDS011;64821;13.710;100.604;2023-04-06T03:07:06;36.08;;;31.20;;
76094;SDS011;64821;13.710;100.604;2023-04-06T03:08:09;34.50;;;29.80;;
76094;SDS011;64821;13.710;100.604;2023-04-06T03:09:13;39.60;;;31.10;;
76094;SDS011;64821;13.710;100.604;2023-04-06T03:10:17;32.80;;;29.20;;
76094;SDS011;64821;13.710;100.604;2023-04-06T03:11:21;37.63;;;31.80;;
76094;SDS011;64821;13.710;100.604;2023-04-06T03:12:26;34.15;;;30.42;;
76094;SDS011;64821;13.710;100.604;2023-04-06T03:13:30;38.25;;;29.88;;
76094;SDS011;64821;13.710;100.604;2023-04-06T03:14:34;33.05;;;27.77;;
76094;SDS011;64821;13.710;100.604;2023-04-06T03:15:38;36.30;;;30.20;;
76094;SDS011;64821;13.710;100.604;2023-04-06T03:16:41;35.33;;;30.13;;
76094;SDS011;64821;13.710;100.604;2023-04-06T03:17:45;35.50;;;30.55;;
76094;SDS011;64821;13.710;100.604;2023-04-06T03:18:49;40.40;;;31.67;;
76094;SDS011;64821;13.710;100.604;2023-04-06T03:19:53;36.58;;;31.85;;
76094;SDS011;64821;13.710;100.604;2023-04-06T03:20:57;36.97;;;30.88;;
76094;SDS011;64821;13.710;100.604;2023-04-06T03:22:01;36.33;;;29.87;;
76094;SDS011;64821;13.710;100.604;2023-04-06T03:23:05;36.60;;;30.33;;
76094;SDS011;64821;13.710;100.604;2023-04-06T03:24:08;38.65;;;31.13;;
76094;SDS011;64821;13.710;100.604;2023-04-06T03:25:12;34.03;;;29.17;;
76094;SDS011;64821;13.710;100.604;2023-04-06T03:26:16;40.40;;;31.08;;
76094;SDS011;64821;13.710;100.604;2023-04-06T03:27:20;36.87;;;31.10;;
76094;SDS011;64821;13.710;100.604;2023-04-06T03:28:26;37.92;;;31.20;;
76094;SDS011;64821;13.710;100.604;2023-04-06T03:29:29;36.25;;;30.63;;
76094;SDS011;64821;13.710;100.604;2023-04-06T03:30:33;34.92;;;30.58;;
76094;SDS011;64821;13.710;100.604;2023-04-06T03:31:37;32.75;;;28.42;;
76094;SDS011;64821;13.710;100.604;2023-04-06T03:32:41;31.63;;;27.20;;
76094;SDS011;64821;13.710;100.604;2023-04-06T03:33:45;36.20;;;31.15;;
76094;SDS011;64821;13.710;100.604;2023-04-06T03:34:49;37.13;;;30.33;;
76094;SDS011;64821;13.710;100.604;2023-04-06T03:35:53;37.33;;;31.52;;
76094;SDS011;64821;13.710;100.604;2023-04-06T03:36:57;35.15;;;29.00;;
76094;SDS011;64821;13.710;100.604;2023-04-06T03:38:11;37.10;;;32.10;;
76094;SDS011;64821;13.710;100.604;2023-04-06T03:39:17;39.60;;;32.97;;
76094;SDS011;64821;13.710;100.604;2023-04-06T03:40:21;36.65;;;31.35;;
76094;SDS011;64821;13.710;100.604;2023-04-06T03:41:25;36.28;;;29.98;;
76094;SDS011;64821;13.710;100.604;2023-04-06T03:42:31;38.83;;;31.98;;
76094;SDS011;64821;13.710;100.604;2023-04-06T03:43:36;40.63;;;29.90;;
76094;SDS011;64821;13.710;100.604;2023-04-06T03:44:40;34.55;;;28.42;;
76094;SDS011;64821;13.710;100.604;2023-04-06T03:45:44;34.83;;;31.00;;
76094;SDS011;64821;13.710;100.604;2023-04-06T03:46:47;35.05;;;31.35;;
76094;SDS011;64821;13.710;100.604;2023-04-06T03:47:51;36.92;;;31.65;;
76094;SDS011;64821;13.710;100.604;2023-04-06T03:48:55;39.60;;;31.93;;
76094;SDS011;64821;13.710;100.604;2023-04-06T03:49:59;36.65;;;31.42;;
76094;SDS011;64821;13.710;100.604;2023-04-06T03:51:03;35.42;;;31.25;;
76094;SDS011;64821;13.710;100.604;2023-04-06T03:52:07;36.05;;;31.52;;
76094;SDS011;64821;13.710;100.604;2023-04-06T03:53:11;34.40;;;29.70;;
76094;SDS011;64821;13.710;100.604;2023-04-06T03:54:15;35.53;;;31.17;;
76094;SDS011;64821;13.710;100.604;2023-04-06T03:55:21;35.17;;;30.45;;
76094;SDS011;64821;13.710;100.604;2023-04-06T03:56:28;40.45;;;32.95;;
76094;SDS011;64821;13.710;100.604;2023-04-06T03:57:32;39.72;;;33.58;;
76094;SDS011;64821;13.710;100.604;2023-04-06T03:58:37;37.90;;;32.67;;
76094;SDS011;64821;13.710;100.604;2023-04-06T03:59:43;38.67;;;33.67;;
76094;SDS011;64821;13.710;100.604;2023-04-06T04:00:50;39.55;;;32.47;;
76094;SDS011;64821;13.710;100.604;2023-04-06T04:01:54;36.80;;;30.77;;
76094;SDS011;64821;13.710;100.604;2023-04-06T04:02:58;39.00;;;32.15;;
76094;SDS011;64821;13.710;100.604;2023-04-06T04:04:02;36.03;;;31.58;;
76094;SDS011;64821;13.710;100.604;2023-04-06T04:05:06;39.57;;;30.97;;
76094;SDS011;64821;13.710;100.604;2023-04-06T04:06:10;37.40;;;30.00;;
76094;SDS011;64821;13.710;100.604;2023-04-06T04:07:18;34.70;;;30.95;;
76094;SDS011;64821;13.710;100.604;2023-04-06T04:08:40;38.92;;;32.22;;
76094;SDS011;64821;13.710;100.604;2023-04-06T04:09:43;37.30;;;32.03;;
76094;SDS011;64821;13.710;100.604;2023-04-06T04:10:47;36.30;;;30.27;;
76094;SDS011;64821;13.710;100.604;2023-04-06T04:11:51;39.40;;;32.00;;
76094;SDS011;64821;13.710;100.604;2023-04-06T04:13:15;39.88;;;32.55;;
76094;SDS011;64821;13.710;100.604;2023-04-06T04:14:21;36.92;;;31.38;;
76094;SDS011;64821;13.710;100.604;2023-04-06T04:15:24;32.85;;;29.35;;
76094;SDS011;64821;13.710;100.604;2023-04-06T04:16:28;36.60;;;31.20;;
76094;SDS011;64821;13.710;100.604;2023-04-06T04:17:33;36.50;;;30.45;;
76094;SDS011;64821;13.710;100.604;2023-04-06T04:18:37;41.20;;;31.58;;
76094;SDS011;64821;13.710;100.604;2023-04-06T04:19:41;38.03;;;30.92;;
76094;SDS011;64821;13.710;100.604;2023-04-06T04:20:44;34.97;;;29.25;;
76094;SDS011;64821;13.710;100.604;2023-04-06T04:21:48;35.20;;;28.97;;
76094;SDS011;64821;13.710;100.604;2023-04-06T04:22:52;34.47;;;30.73;;
76094;SDS011;64821;13.710;100.604;2023-04-06T04:23:56;40.38;;;29.52;;
76094;SDS011;64821;13.710;100.604;2023-04-06T04:25:01;36.95;;;29.80;;
76094;SDS011;64821;13.710;100.604;2023-04-06T04:26:08;37.45;;;31.55;;
76094;SDS011;64821;13.710;100.604;2023-04-06T04:27:12;35.60;;;30.37;;
76094;SDS011;64821;13.710;100.604;2023-04-06T04:28:16;35.60;;;30.20;;
76094;SDS011;64821;13.710;100.604;2023-04-06T04:29:21;38.65;;;31.42;;
76094;SDS011;64821;13.710;100.604;2023-04-06T04:30:25;37.53;;;31.90;;
76094;SDS011;64821;13.710;100.604;2023-04-06T04:31:29;37.88;;;31.77;;
76094;SDS011;64821;13.710;100.604;2023-04-06T04:32:33;37.33;;;31.70;;
76094;SDS011;64821;13.710;100.604;2023-04-06T04:33:37;37.13;;;29.55;;
76094;SDS011;64821;13.710;100.604;2023-04-06T04:34:41;35.72;;;30.17;;
76094;SDS011;64821;13.710;100.604;2023-04-06T04:35:44;33.72;;;30.00;;
76094;SDS011;64821;13.710;100.604;2023-04-06T04:36:48;33.97;;;29.05;;
76094;SDS011;64821;13.710;100.604;2023-04-06T04:37:52;34.47;;;29.63;;
76094;SDS011;64821;13.710;100.604;2023-04-06T04:38:56;37.80;;;31.42;;
76094;SDS011;64821;13.710;100.604;2023-04-06T04:40:03;37.40;;;31.40;;
76094;SDS011;64821;13.710;100.604;2023-04-06T04:41:07;39.25;;;30.58;;
76094;SDS011;64821;13.710;100.604;2023-04-06T04:42:11;36.92;;;30.15;;
76094;SDS011;64821;13.710;100.604;2023-04-06T04:43:15;34.57;;;29.40;;
76094;SDS011;64821;13.710;100.604;2023-04-06T04:44:19;36.05;;;30.52;;
76094;SDS011;64821;13.710;100.604;2023-04-06T04:45:24;36.42;;;30.10;;
76094;SDS011;64821;13.710;100.604;2023-04-06T04:46:28;40.38;;;30.88;;
76094;SDS011;64821;13.710;100.604;2023-04-06T04:47:32;35.33;;;31.52;;
76094;SDS011;64821;13.710;100.604;2023-04-06T04:48:36;36.57;;;31.20;;
76094;SDS011;64821;13.710;100.604;2023-04-06T04:49:41;37.05;;;30.75;;
76094;SDS011;64821;13.710;100.604;2023-04-06T04:50:45;32.00;;;28.50;;
76094;SDS011;64821;13.710;100.604;2023-04-06T04:51:49;34.13;;;30.20;;
76094;SDS011;64821;13.710;100.604;2023-04-06T04:52:52;37.72;;;30.13;;
76094;SDS011;64821;13.710;100.604;2023-04-06T04:53:56;37.50;;;31.43;;
76094;SDS011;64821;13.710;100.604;2023-04-06T04:55:03;33.70;;;30.00;;
76094;SDS011;64821;13.710;100.604;2023-04-06T04:56:07;33.40;;;28.55;;
76094;SDS011;64821;13.710;100.604;2023-04-06T04:57:11;37.80;;;29.60;;
76094;SDS011;64821;13.710;100.604;2023-04-06T04:58:15;33.33;;;28.73;;
76094;SDS011;64821;13.710;100.604;2023-04-06T04:59:21;34.23;;;27.87;;
76094;SDS011;64821;13.710;100.604;2023-04-06T05:00:32;34.17;;;27.33;;
76094;SDS011;64821;13.710;100.604;2023-04-06T05:01:36;32.08;;;28.45;;
76094;SDS011;64821;13.710;100.604;2023-04-06T05:02:55;33.35;;;29.65;;
76094;SDS011;64821;13.710;100.604;2023-04-06T05:04:02;33.63;;;28.65;;
76094;SDS011;64821;13.710;100.604;2023-04-06T05:05:06;33.57;;;29.83;;
76094;SDS011;64821;13.710;100.604;2023-04-06T05:06:10;31.30;;;27.90;;
76094;SDS011;64821;13.710;100.604;2023-04-06T05:07:14;30.83;;;26.20;;
76094;SDS011;64821;13.710;100.604;2023-04-06T05:08:21;35.45;;;29.92;;
76094;SDS011;64821;13.710;100.604;2023-04-06T05:09:25;33.25;;;28.00;;
76094;SDS011;64821;13.710;100.604;2023-04-06T05:10:33;32.70;;;27.90;;
76094;SDS011;64821;13.710;100.604;2023-04-06T05:11:38;30.50;;;27.17;;
76094;SDS011;64821;13.710;100.604;2023-04-06T05:12:42;36.53;;;29.90;;
76094;SDS011;64821;13.710;100.604;2023-04-06T05:13:46;33.88;;;29.25;;
76094;SDS011;64821;13.710;100.604;2023-04-06T05:14:53;33.78;;;28.13;;
76094;SDS011;64821;13.710;100.604;2023-04-06T05:15:57;35.63;;;28.33;;
76094;SDS011;64821;13.710;100.604;2023-04-06T05:17:01;32.25;;;27.08;;
76094;SDS011;64821;13.710;100.604;2023-04-06T05:18:05;33.08;;;29.48;;
76094;SDS011;64821;13.710;100.604;2023-04-06T05:19:10;33.00;;;29.05;;
76094;SDS011;64821;13.710;100.604;2023-04-06T05:20:17;35.25;;;29.40;;
76094;SDS011;64821;13.710;100.604;2023-04-06T05:21:21;35.60;;;28.07;;
76094;SDS011;64821;13.710;100.604;2023-04-06T05:22:27;34.83;;;28.83;;
76094;SDS011;64821;13.710;100.604;2023-04-06T05:23:31;33.60;;;29.95;;
76094;SDS011;64821;13.710;100.604;2023-04-06T05:25:01;31.90;;;28.42;;
76094;SDS011;64821;13.710;100.604;2023-04-06T05:26:05;33.75;;;30.20;;
76094;SDS011;64821;13.710;100.604;2023-04-06T05:27:09;31.13;;;27.60;;
76094;SDS011;64821;13.710;100.604;2023-04-06T05:28:13;36.40;;;28.80;;
76094;SDS011;64821;13.710;100.604;2023-04-06T05:29:20;32.00;;;28.70;;
76094;SDS011;64821;13.710;100.604;2023-04-06T05:30:25;31.55;;;27.65;;
76094;SDS011;64821;13.710;100.604;2023-04-06T05:31:29;33.38;;;29.25;;
76094;SDS011;64821;13.710;100.604;2023-04-06T05:32:33;32.17;;;28.70;;
76094;SDS011;64821;13.710;100.604;2023-04-06T05:33:37;35.38;;;29.48;;
76094;SDS011;64821;13.710;100.604;2023-04-06T05:34:41;32.28;;;27.70;;
76094;SDS011;64821;13.710;100.604;2023-04-06T05:36:01;32.03;;;27.58;;
76094;SDS011;64821;13.710;100.604;2023-04-06T05:37:05;31.92;;;28.05;;
76094;SDS011;64821;13.710;100.604;2023-04-06T05:38:09;33.40;;;28.73;;
76094;SDS011;64821;13.710;100.604;2023-04-06T05:39:13;33.75;;;30.02;;
76094;SDS011;64821;13.710;100.604;2023-04-06T05:40:17;31.98;;;28.55;;
76094;SDS011;64821;13.710;100.604;2023-04-06T05:41:25;34.22;;;30.17;;
76094;SDS011;64821;13.710;100.604;2023-04-06T05:42:35;34.40;;;29.13;;
76094;SDS011;64821;13.710;100.604;2023-04-06T05:43:40;35.13;;;28.73;;
76094;SDS011;64821;13.710;100.604;2023-04-06T05:44:43;31.58;;;27.95;;
76094;SDS011;64821;13.710;100.604;2023-04-06T05:45:49;32.95;;;28.60;;
76094;SDS011;64821;13.710;100.604;2023-04-06T05:46:53;34.33;;;28.20;;
76094;SDS011;64821;13.710;100.604;2023-04-06T05:47:57;33.40;;;27.58;;
76094;SDS011;64821;13.710;100.604;2023-04-06T05:49:01;32.67;;;29.17;;
76094;SDS011;64821;13.710;100.604;2023-04-06T05:50:07;33.22;;;29.77;;
76094;SDS011;64821;13.710;100.604;2023-04-06T05:51:12;31.15;;;27.80;;
76094;SDS011;64821;13.710;100.604;2023-04-06T05:52:15;31.38;;;28.00;;
76094;SDS011;64821;13.710;100.604;2023-04-06T05:53:19;33.38;;;28.92;;
76094;SDS011;64821;13.710;100.604;2023-04-06T05:54:23;33.97;;;29.93;;
76094;SDS011;64821;13.710;100.604;2023-04-06T05:55:27;30.73;;;26.65;;
76094;SDS011;64821;13.710;100.604;2023-04-06T05:56:31;32.78;;;28.23;;
76094;SDS011;64821;13.710;100.604;2023-04-06T05:57:35;35.83;;;29.95;;
76094;SDS011;64821;13.710;100.604;2023-04-06T05:58:38;32.75;;;26.85;;
76094;SDS011;64821;13.710;100.604;2023-04-06T05:59:42;31.03;;;27.63;;
76094;SDS011;64821;13.710;100.604;2023-04-06T06:00:46;33.30;;;29.00;;
76094;SDS011;64821;13.710;100.604;2023-04-06T06:01:51;32.90;;;29.15;;
76094;SDS011;64821;13.710;100.604;2023-04-06T06:02:55;33.53;;;29.92;;
76094;SDS011;64821;13.710;100.604;2023-04-06T06:04:00;33.28;;;29.67;;
76094;SDS011;64821;13.710;100.604;2023-04-06T06:05:04;35.20;;;30.83;;
76094;SDS011;64821;13.710;100.604;2023-04-06T06:06:09;34.90;;;28.85;;
76094;SDS011;64821;13.710;100.604;2023-04-06T06:07:12;34.40;;;27.42;;